Main page
METAR-TAF:

METAR-TAF

Airports :

Sofia Airport

Sofia, Bulgaria

latitude: 42-39N, longitude: 023-23E, elevation: 586 m

Current weather observation

The report was made 21 minutes ago, at 17:30 UTC
Wind 4 kt from the South/Southwest, varying between South and West/Southwest
Temperature 6°C
Humidity 56%
Pressure 1023 hPa
Visibility: 8000 m

METAR: LBSF 151730Z 20004KT 180V240 8000 NSC 06/M02 Q1023 NOSIG

Time: 19:51 (17:51 UTC)

Forecast

The report was made 51 minutes ago, at 17:00 UTC
Forecast valid from 15 at 18 UTC to 16 at 18 UTC
Wind 4 kt from variable directions
Visibility 10 km or more
Broken clouds at a height of 4000 ft
Temporary
from 16 at 10 UTC to 16 at 16 UTC
Wind 10 kt from the North/Northeast

TAF: LBSF 151700Z 1518/1618 VRB04KT 9999 BKN040 TEMPO 1610/1616 03010KT

Weather observations and forecasts of more than 4000 airports (METAR and TAF reports).

The available stations are represented by yellow and red dots on the map.

Hover mouse over dot to see the name of the station.

Then click to see weather observations and forecasts.

To change the map : click on the green buttons with a black cross to zoom in, on the green button with a dash to zoom out, or on the green arrows for adjacent maps.


METAR-TAF: